createdAt,value
2023-01-04T00:01:22.939Z,90.71
2023-01-04T00:03:50.108Z,90.96
2023-01-04T00:06:18.060Z,90.94
2023-01-04T00:08:45.142Z,91.05
2023-01-04T00:11:17.921Z,91.24
2023-01-04T00:13:46.170Z,91.18
2023-01-04T00:16:16.317Z,90.46
2023-01-04T00:18:44.255Z,89.62
2023-01-04T00:21:31.077Z,88.94
2023-01-04T00:24:00.608Z,88.94
2023-01-04T00:26:30.522Z,88.58
2023-01-04T00:29:00.898Z,88.55
2023-01-04T00:31:29.113Z,88.58
2023-01-04T00:33:58.788Z,88.69
2023-01-04T00:36:26.625Z,88.93
2023-01-04T00:39:23.753Z,88.34
2023-01-04T00:42:01.291Z,88.38
2023-01-04T00:44:30.062Z,88.45
2023-01-04T00:46:57.855Z,88.07
2023-01-04T00:49:26.017Z,88.07
2023-01-04T00:51:53.516Z,87.57
2023-01-04T00:54:20.900Z,87.45
2023-01-04T00:56:48.964Z,87.70
2023-01-04T00:59:18.336Z,87.92
2023-01-04T01:01:46.113Z,87.93
2023-01-04T01:04:16.376Z,88.37
2023-01-04T01:06:43.845Z,88.42
2023-01-04T01:09:11.287Z,88.30
2023-01-04T01:11:40.398Z,88.63
2023-01-04T01:14:08.929Z,88.82
2023-01-04T01:16:54.428Z,88.72
2023-01-04T01:19:23.500Z,88.82
2023-01-04T01:21:50.528Z,88.90
2023-01-04T01:24:19.742Z,88.76
2023-01-04T01:26:47.124Z,88.98
2023-01-04T01:29:14.278Z,88.81
2023-01-04T01:31:42.298Z,89.44
2023-01-04T01:34:09.813Z,89.21
2023-01-04T01:36:37.356Z,88.80
2023-01-04T01:39:06.432Z,88.63
2023-01-04T01:41:34.995Z,88.31
2023-01-04T01:44:13.888Z,88.40
2023-01-04T01:46:52.583Z,88.45
2023-01-04T01:49:34.347Z,88.39
2023-01-04T01:52:09.328Z,88.28
2023-01-04T01:54:41.841Z,88.45
2023-01-04T01:57:13.966Z,88.29
2023-01-04T01:59:44.654Z,87.97
2023-01-04T02:02:12.633Z,87.75
2023-01-04T02:04:45.063Z,87.58
2023-01-04T02:07:16.406Z,87.48
2023-01-04T02:09:45.081Z,87.67
2023-01-04T02:12:13.497Z,87.81
2023-01-04T02:14:44.400Z,87.58
2023-01-04T02:17:35.607Z,87.71
2023-01-04T02:20:21.187Z,88.15
2023-01-04T02:23:03.476Z,88.08
2023-01-04T02:25:57.621Z,88.17
2023-01-04T02:28:48.102Z,88.18
2023-01-04T02:31:41.369Z,88.32
2023-01-04T02:34:11.223Z,88.40
2023-01-04T02:36:57.913Z,88.84
2023-01-04T02:39:49.176Z,88.61
2023-01-04T02:43:16.731Z,89.06
2023-01-04T02:45:53.606Z,89.31
2023-01-04T02:48:38.948Z,89.58
2023-01-04T02:51:06.004Z,90.61
2023-01-04T02:53:40.405Z,90.96
2023-01-04T02:56:46.914Z,90.88
2023-01-04T02:59:46.112Z,91.16
2023-01-04T03:02:40.724Z,91.30
2023-01-04T03:05:44.150Z,91.81
2023-01-04T03:08:17.964Z,92.35
2023-01-04T03:10:59.905Z,92.60
2023-01-04T03:13:43.183Z,93.02
2023-01-04T03:16:17.188Z,93.74
2023-01-04T03:18:48.430Z,94.08
2023-01-04T03:21:19.047Z,94.60
2023-01-04T03:24:07.927Z,94.32
2023-01-04T03:27:00.121Z,94.42
2023-01-04T03:30:02.640Z,94.55
2023-01-04T03:33:06.564Z,94.79
2023-01-04T03:35:47.348Z,94.66
2023-01-04T03:39:03.399Z,95.10
2023-01-04T03:42:03.226Z,95.52
2023-01-04T03:44:57.827Z,95.92
2023-01-04T03:48:30.582Z,95.76
2023-01-04T03:51:36.096Z,95.75
2023-01-04T03:54:14.842Z,95.65
2023-01-04T03:56:44.966Z,95.46
2023-01-04T03:59:13.541Z,95.17
2023-01-04T04:01:43.242Z,94.87
2023-01-04T04:04:30.091Z,94.32
2023-01-04T04:07:15.483Z,94.18
2023-01-04T04:09:42.732Z,93.81
2023-01-04T04:12:09.785Z,93.70
2023-01-04T04:14:36.857Z,93.68
2023-01-04T04:17:04.379Z,94.04
2023-01-04T04:19:31.418Z,93.85
2023-01-04T04:21:58.563Z,93.51
2023-01-04T04:24:27.080Z,93.14
2023-01-04T04:26:55.565Z,92.79
2023-01-04T04:29:23.636Z,92.61
2023-01-04T04:31:51.192Z,92.62
2023-01-04T04:34:18.428Z,92.48
2023-01-04T04:36:45.515Z,92.20
2023-01-04T04:39:13.045Z,92.45
2023-01-04T04:41:41.921Z,92.22
2023-01-04T04:44:15.140Z,92.45
2023-01-04T04:46:43.419Z,92.39
2023-01-04T04:49:10.986Z,92.28
2023-01-04T04:51:38.412Z,92.80
2023-01-04T04:54:06.492Z,93.18
2023-01-04T04:56:33.678Z,93.38
2023-01-04T04:59:00.768Z,93.24
2023-01-04T05:01:27.820Z,93.29
2023-01-04T05:03:55.098Z,93.78
2023-01-04T05:06:22.301Z,94.11
2023-01-04T05:08:49.336Z,94.25
2023-01-04T05:11:16.870Z,95.08
2023-01-04T05:13:43.873Z,95.32
2023-01-04T05:16:10.952Z,95.25
2023-01-04T05:18:38.032Z,95.48
2023-01-04T05:21:05.078Z,95.35
2023-01-04T05:23:32.115Z,96.04
2023-01-04T05:26:01.764Z,96.33
2023-01-04T05:28:29.540Z,96.57
2023-01-04T05:30:57.325Z,96.59
2023-01-04T05:33:29.757Z,96.79
2023-01-04T05:35:59.385Z,96.88
2023-01-04T05:38:26.954Z,97.06
2023-01-04T05:40:54.829Z,97.07
2023-01-04T05:43:23.616Z,97.46
2023-01-04T05:45:56.242Z,97.46
2023-01-04T05:48:24.927Z,97.57
2023-01-04T05:50:53.909Z,97.60
2023-01-04T05:53:21.156Z,97.60
2023-01-04T05:55:49.187Z,98.18
2023-01-04T05:58:16.535Z,98.47
2023-01-04T06:00:43.575Z,98.67
2023-01-04T06:03:10.799Z,98.78
2023-01-04T06:05:37.875Z,98.66
2023-01-04T06:08:05.245Z,98.78
2023-01-04T06:10:32.366Z,98.83
2023-01-04T06:12:59.355Z,98.86
2023-01-04T06:15:26.578Z,98.78
2023-01-04T06:17:53.670Z,98.83
2023-01-04T06:20:20.845Z,98.69
2023-01-04T06:22:47.789Z,98.53
2023-01-04T06:25:14.939Z,98.54
2023-01-04T06:27:42.017Z,98.57
2023-01-04T06:30:09.526Z,98.65
2023-01-04T06:32:36.863Z,98.46
2023-01-04T06:35:04.560Z,97.96
2023-01-04T06:37:31.569Z,97.71
2023-01-04T06:39:58.650Z,97.36
2023-01-04T06:42:44.131Z,96.82
2023-01-04T06:45:12.569Z,95.69
2023-01-04T06:47:41.109Z,94.60
2023-01-04T06:50:08.915Z,93.31
2023-01-04T06:52:36.483Z,92.65
2023-01-04T06:55:03.854Z,91.88
2023-01-04T06:57:31.055Z,90.87
2023-01-04T06:59:58.292Z,90.61
2023-01-04T07:02:25.638Z,89.75
2023-01-04T07:04:52.787Z,88.35
2023-01-04T07:07:19.880Z,87.93
2023-01-04T07:09:48.233Z,86.89
2023-01-04T07:12:15.426Z,85.83
2023-01-04T07:14:42.512Z,85.37
2023-01-04T07:17:09.646Z,84.52
2023-01-04T07:19:37.392Z,83.86
2023-01-04T07:22:04.483Z,82.79
2023-01-04T07:24:31.558Z,82.36
2023-01-04T07:27:02.091Z,81.82
2023-01-04T07:29:29.321Z,81.78
2023-01-04T07:31:56.870Z,81.00
2023-01-04T07:34:25.524Z,79.92
2023-01-04T07:36:52.675Z,79.97
2023-01-04T07:39:20.785Z,79.76
2023-01-04T07:41:49.491Z,80.42
2023-01-04T07:44:19.741Z,80.51
2023-01-04T07:46:46.865Z,80.93
2023-01-04T07:49:17.832Z,81.35
2023-01-04T07:51:46.812Z,81.57
2023-01-04T07:54:15.031Z,81.32
2023-01-04T07:56:42.240Z,81.00
2023-01-04T07:59:11.177Z,79.98
2023-01-04T08:01:38.966Z,79.18
2023-01-04T08:04:10.497Z,79.47
2023-01-04T08:06:38.861Z,78.06
2023-01-04T08:09:06.595Z,76.85
2023-01-04T08:11:35.828Z,76.51
2023-01-04T08:14:03.338Z,76.12
2023-01-04T08:16:37.423Z,76.08
2023-01-04T08:19:20.533Z,76.32
2023-01-04T08:21:48.655Z,76.96
2023-01-04T08:24:18.351Z,76.75
2023-01-04T08:26:46.498Z,76.52
2023-01-04T08:29:14.095Z,76.97
2023-01-04T08:31:41.673Z,79.17
2023-01-04T08:34:09.807Z,80.49
2023-01-04T08:36:53.934Z,79.76
2023-01-04T08:39:21.960Z,79.04
2023-01-04T08:42:05.126Z,77.38
2023-01-04T08:44:41.347Z,76.16
2023-01-04T08:47:08.661Z,74.83
2023-01-04T08:49:35.666Z,74.78
2023-01-04T08:52:02.962Z,74.25
2023-01-04T08:54:29.971Z,74.39
2023-01-04T08:56:57.164Z,74.16
2023-01-04T08:59:24.199Z,73.80
2023-01-04T09:01:51.343Z,73.23
2023-01-04T09:04:18.711Z,73.03
2023-01-04T09:06:45.831Z,73.36
2023-01-04T09:09:12.928Z,73.30
2023-01-04T09:11:40.062Z,73.23
2023-01-04T09:14:09.792Z,72.29
2023-01-04T09:16:38.587Z,72.06
2023-01-04T09:19:06.500Z,71.49
2023-01-04T09:21:34.226Z,72.06
2023-01-04T09:24:01.343Z,72.63
2023-01-04T09:26:28.559Z,72.30
2023-01-04T09:28:56.609Z,71.85
2023-01-04T09:31:27.101Z,71.58
2023-01-04T09:36:42.412Z,70.39
2023-01-04T09:39:14.867Z,69.65
2023-01-04T09:41:53.450Z,67.96
2023-01-04T09:47:49.083Z,67.21
2023-01-04T09:50:32.187Z,66.63
2023-01-04T09:53:28.953Z,64.83
2023-01-04T09:56:08.248Z,65.21
2023-01-04T09:58:41.425Z,65.17
2023-01-04T10:01:17.878Z,63.46
2023-01-04T10:04:02.047Z,63.28
2023-01-04T10:06:34.354Z,63.27
2023-01-04T10:09:10.666Z,63.25
2023-01-04T10:11:59.256Z,62.71
2023-01-04T10:14:28.902Z,62.02
2023-01-04T10:18:33.891Z,63.64
2023-01-04T10:23:43.955Z,60.69
2023-01-04T10:26:16.165Z,61.87
2023-01-04T10:28:45.908Z,61.71
2023-01-04T10:31:39.338Z,61.68
2023-01-04T10:34:23.459Z,61.74
2023-01-04T10:36:54.281Z,63.41
2023-01-04T10:39:32.058Z,62.93
2023-01-04T10:42:10.833Z,61.29
2023-01-04T10:45:14.133Z,60.95
2023-01-04T10:48:02.757Z,60.32
2023-01-04T10:50:29.875Z,61.02
2023-01-04T10:53:05.433Z,60.68
2023-01-04T10:56:24.167Z,60.02
2023-01-04T10:58:37.409Z,59.15
2023-01-04T11:01:10.708Z,58.46
2023-01-04T11:03:40.787Z,58.96
2023-01-04T11:06:27.738Z,59.76
2023-01-04T11:09:06.745Z,58.41
2023-01-04T11:11:46.388Z,61.15
2023-01-04T11:14:14.750Z,61.26
2023-01-04T11:16:45.504Z,59.67
2023-01-04T11:19:12.728Z,59.32
2023-01-04T11:21:50.650Z,58.83
2023-01-04T11:24:34.661Z,59.38
2023-01-04T11:27:11.648Z,58.17
2023-01-04T11:29:44.868Z,58.07
2023-01-04T11:32:17.537Z,58.37
2023-01-04T11:34:47.893Z,59.48
2023-01-04T11:37:39.026Z,59.33
2023-01-04T11:40:20.681Z,59.05
2023-01-04T11:43:01.796Z,59.03
2023-01-04T11:45:28.949Z,58.85
2023-01-04T11:47:58.289Z,60.00
2023-01-04T11:50:44.259Z,60.30
2023-01-04T11:53:25.215Z,60.59
2023-01-04T11:56:07.493Z,60.70
2023-01-04T11:58:34.626Z,61.84
2023-01-04T12:01:02.078Z,61.56
2023-01-04T12:03:40.305Z,62.53
2023-01-04T12:06:32.497Z,62.11
2023-01-04T12:08:59.712Z,62.64
2023-01-04T12:11:30.850Z,62.28
2023-01-04T12:13:59.891Z,62.11
2023-01-04T12:16:45.589Z,62.21
2023-01-04T12:19:18.443Z,62.84
2023-01-04T12:21:51.749Z,62.28
2023-01-04T12:24:38.911Z,62.66
2023-01-04T12:27:14.349Z,63.29
2023-01-04T12:29:43.480Z,62.73
2023-01-04T12:32:13.688Z,62.50
2023-01-04T12:34:46.984Z,62.19
2023-01-04T12:37:42.756Z,62.59
2023-01-04T12:40:47.200Z,62.93
2023-01-04T12:43:17.108Z,62.37
2023-01-04T12:45:46.239Z,64.04
2023-01-04T12:48:46.665Z,61.67
2023-01-04T12:51:37.209Z,61.87
2023-01-04T12:54:24.588Z,60.80
2023-01-04T12:57:23.704Z,62.37
2023-01-04T13:00:08.496Z,62.86
2023-01-04T13:02:44.484Z,64.19
2023-01-04T13:08:11.724Z,64.95
2023-01-04T13:10:43.896Z,64.32
2023-01-04T13:13:20.196Z,65.12
2023-01-04T13:16:02.075Z,65.16
2023-01-04T13:18:47.743Z,66.49
2023-01-04T13:21:21.711Z,66.08
2023-01-04T13:23:52.830Z,66.20
2023-01-04T13:26:40.450Z,66.10
2023-01-04T13:29:18.540Z,66.43
2023-01-04T13:32:01.278Z,67.48
2023-01-04T13:34:46.510Z,66.84
2023-01-04T13:37:19.320Z,67.31
2023-01-04T13:39:52.093Z,68.41
2023-01-04T13:42:31.986Z,68.51
2023-01-04T13:45:21.026Z,69.88
2023-01-04T13:47:51.978Z,69.79
2023-01-04T13:50:40.281Z,70.73
2023-01-04T13:53:19.515Z,71.93
2023-01-04T13:55:51.903Z,72.10
2023-01-04T13:58:21.942Z,72.74
2023-01-04T14:00:55.631Z,72.95
2023-01-04T14:03:28.960Z,72.19
2023-01-04T14:06:04.418Z,71.88
2023-01-04T14:08:36.140Z,71.68
2023-01-04T14:11:14.970Z,73.12
2023-01-04T14:13:48.313Z,73.34
2023-01-04T14:16:15.803Z,72.77
2023-01-04T14:18:43.099Z,73.53
2023-01-04T14:21:18.914Z,74.15
2023-01-04T14:23:46.188Z,74.20
2023-01-04T14:26:34.002Z,73.22
2023-01-04T14:29:32.892Z,73.75
2023-01-04T14:32:02.425Z,73.55
2023-01-04T14:34:29.480Z,73.83
2023-01-04T14:37:03.920Z,75.17
2023-01-04T14:39:34.294Z,75.37
2023-01-04T14:42:01.763Z,75.12
2023-01-04T14:44:31.172Z,75.45
2023-01-04T14:47:02.318Z,75.76
2023-01-04T14:49:30.028Z,76.08
2023-01-04T14:51:59.846Z,76.31
2023-01-04T14:54:30.538Z,75.59
2023-01-04T14:56:58.994Z,75.40
2023-01-04T14:59:27.107Z,75.61
2023-01-04T15:01:55.886Z,75.64
2023-01-04T15:04:23.471Z,75.25
2023-01-04T15:06:57.583Z,75.06
2023-01-04T15:09:25.616Z,73.92
2023-01-04T15:11:52.764Z,74.08
2023-01-04T15:14:20.239Z,75.65
2023-01-04T15:16:47.768Z,75.23
2023-01-04T15:19:15.024Z,74.94
2023-01-04T15:21:42.146Z,73.84
2023-01-04T15:24:10.451Z,74.08
2023-01-04T15:26:38.969Z,73.69
2023-01-04T15:29:07.047Z,73.17
2023-01-04T15:31:39.546Z,73.22
2023-01-04T15:34:09.298Z,72.62
2023-01-04T15:36:38.873Z,72.75
2023-01-04T15:39:07.617Z,73.66
2023-01-04T15:41:53.517Z,74.96
2023-01-04T15:44:21.307Z,75.51
2023-01-04T15:46:48.403Z,75.46
2023-01-04T15:49:17.880Z,75.52
2023-01-04T15:51:46.021Z,75.79
2023-01-04T15:54:13.718Z,76.00
2023-01-04T15:56:40.758Z,76.51
2023-01-04T15:59:07.947Z,76.90
2023-01-04T16:01:35.086Z,76.95
2023-01-04T16:04:03.322Z,77.09
2023-01-04T16:06:30.473Z,76.65
2023-01-04T16:08:59.111Z,76.38
2023-01-04T16:11:26.239Z,76.24
2023-01-04T16:13:54.008Z,76.44
2023-01-04T16:16:23.787Z,76.47
2023-01-04T16:18:53.183Z,76.43
2023-01-04T16:21:23.584Z,76.57
2023-01-04T16:23:52.097Z,76.51
2023-01-04T16:26:19.605Z,76.94
2023-01-04T16:28:55.974Z,76.18
2023-01-04T16:31:23.372Z,75.83
2023-01-04T16:33:54.368Z,75.29
2023-01-04T16:36:21.609Z,75.05
2023-01-04T16:38:48.800Z,74.85
2023-01-04T16:41:18.729Z,74.71
2023-01-04T16:43:48.372Z,74.59
2023-01-04T16:46:21.502Z,74.50
2023-01-04T16:48:57.043Z,74.45
2023-01-04T16:51:26.274Z,74.36
2023-01-04T16:53:53.846Z,74.27
2023-01-04T16:56:25.227Z,74.11
2023-01-04T16:58:52.787Z,73.78
2023-01-04T17:01:24.542Z,73.33
2023-01-04T17:03:55.598Z,72.51
2023-01-04T17:06:30.866Z,71.67
2023-01-04T17:08:59.432Z,71.31
2023-01-04T17:14:18.092Z,71.03
2023-01-04T17:16:45.088Z,71.02
2023-01-04T17:19:12.229Z,71.26
2023-01-04T17:21:39.741Z,71.60
2023-01-04T17:24:07.137Z,71.51
2023-01-04T17:26:34.406Z,72.13
2023-01-04T17:29:02.210Z,72.28
2023-01-04T17:31:39.991Z,72.53
2023-01-04T17:34:10.587Z,72.36
2023-01-04T17:36:38.528Z,72.45
2023-01-04T17:39:06.071Z,72.54
2023-01-04T17:41:33.340Z,72.43
2023-01-04T17:44:02.955Z,72.36
2023-01-04T17:46:32.607Z,72.33
2023-01-04T17:49:22.153Z,72.37
2023-01-04T17:51:53.014Z,72.60
2023-01-04T17:54:21.433Z,72.44
2023-01-04T17:56:48.691Z,72.64
2023-01-04T17:59:15.817Z,72.81
2023-01-04T18:01:43.042Z,73.39
2023-01-04T18:04:10.218Z,73.44
2023-01-04T18:06:37.749Z,73.58
2023-01-04T18:09:09.139Z,73.81
2023-01-04T18:11:37.842Z,74.07
2023-01-04T18:14:09.616Z,74.28
2023-01-04T18:16:57.201Z,74.39
2023-01-04T18:19:27.837Z,74.36
2023-01-04T18:21:56.213Z,74.72
2023-01-04T18:24:39.460Z,74.66
2023-01-04T18:27:27.881Z,74.80
2023-01-04T18:29:56.207Z,75.01
2023-01-04T18:32:25.433Z,75.20
2023-01-04T18:34:52.602Z,75.56
2023-01-04T18:37:19.749Z,75.50
2023-01-04T18:39:48.553Z,75.69
2023-01-04T18:42:16.046Z,75.73
2023-01-04T18:44:48.452Z,75.57
2023-01-04T18:47:20.074Z,75.73
2023-01-04T18:49:48.326Z,75.63
2023-01-04T18:52:16.084Z,75.77
2023-01-04T18:54:44.926Z,75.67
2023-01-04T18:57:12.599Z,75.96
2023-01-04T18:59:40.919Z,76.06
2023-01-04T19:02:08.122Z,76.30
2023-01-04T19:04:36.543Z,76.51
2023-01-04T19:07:03.546Z,76.44
2023-01-04T19:09:30.771Z,76.39
2023-01-04T19:11:57.822Z,76.51
2023-01-04T19:14:24.895Z,76.43
2023-01-04T19:16:53.475Z,76.29
2023-01-04T19:19:20.789Z,76.34
2023-01-04T19:21:47.998Z,76.08
2023-01-04T19:24:15.172Z,75.70
2023-01-04T19:26:42.987Z,75.43
2023-01-04T19:29:10.040Z,74.82
2023-01-04T19:31:37.387Z,74.88
2023-01-04T19:34:04.446Z,75.02
2023-01-04T19:36:31.662Z,74.83
2023-01-04T19:38:58.742Z,74.92
2023-01-04T19:41:33.808Z,74.92
2023-01-04T19:44:07.171Z,75.11
2023-01-04T19:46:34.578Z,75.00
2023-01-04T19:49:01.779Z,74.99
2023-01-04T19:51:29.060Z,75.06
2023-01-04T19:53:56.174Z,75.42
2023-01-04T19:56:23.498Z,75.59
2023-01-04T19:58:50.908Z,75.45
2023-01-04T20:01:20.028Z,75.88
2023-01-04T20:03:47.606Z,76.15
2023-01-04T20:06:16.003Z,76.44
2023-01-04T20:08:43.838Z,76.62
2023-01-04T20:11:12.136Z,76.65
2023-01-04T20:13:40.084Z,76.99
2023-01-04T20:16:07.902Z,77.19
2023-01-04T20:18:36.110Z,77.29
2023-01-04T20:21:10.739Z,77.41
2023-01-04T20:23:38.860Z,77.52
2023-01-04T20:26:11.622Z,77.68
2023-01-04T20:28:42.091Z,77.66
2023-01-04T20:31:11.762Z,77.80
2023-01-04T20:33:38.911Z,78.14
2023-01-04T20:36:15.790Z,78.33
2023-01-04T20:38:45.849Z,78.85
2023-01-04T20:41:19.284Z,78.90
2023-01-04T20:43:47.247Z,79.11
2023-01-04T20:46:22.994Z,79.45
2023-01-04T20:48:51.311Z,79.68
2023-01-04T20:51:23.533Z,79.95
2023-01-04T20:53:51.177Z,80.25
2023-01-04T20:56:21.298Z,80.78
2023-01-04T20:58:49.294Z,80.65
2023-01-04T21:01:18.298Z,81.11
2023-01-04T21:03:46.141Z,81.30
2023-01-04T21:06:15.825Z,81.41
2023-01-04T21:08:43.762Z,82.15
2023-01-04T21:11:13.240Z,82.09
2023-01-04T21:13:40.889Z,82.42
2023-01-04T21:16:09.210Z,82.51
2023-01-04T21:18:37.130Z,82.72
2023-01-04T21:21:13.975Z,82.97
2023-01-04T21:23:43.450Z,83.13
2023-01-04T21:26:17.080Z,83.36
2023-01-04T21:28:45.522Z,83.47
2023-01-04T21:31:24.392Z,83.53
2023-01-04T21:33:53.544Z,84.10
2023-01-04T21:36:25.756Z,83.84
2023-01-04T21:38:55.871Z,84.10
2023-01-04T21:41:25.081Z,84.01
2023-01-04T21:43:54.719Z,83.93
2023-01-04T21:46:22.421Z,83.80
2023-01-04T21:48:54.695Z,83.61
2023-01-04T21:51:22.366Z,83.11
2023-01-04T21:53:49.722Z,82.84
2023-01-04T21:56:19.339Z,82.59
2023-01-04T21:58:46.492Z,82.21
2023-01-04T22:01:16.528Z,82.08
2023-01-04T22:03:43.880Z,82.11
2023-01-04T22:06:13.585Z,82.32
2023-01-04T22:08:46.617Z,82.35
2023-01-04T22:11:15.412Z,82.52
2023-01-04T22:13:42.908Z,82.52
2023-01-04T22:16:13.038Z,82.46
2023-01-04T22:18:40.514Z,82.49
2023-01-04T22:21:11.757Z,82.76
2023-01-04T22:23:38.862Z,82.82
2023-01-04T22:26:06.080Z,82.79
2023-01-04T22:28:37.016Z,82.96
2023-01-04T22:31:07.024Z,82.83
2023-01-04T22:33:37.888Z,82.92
2023-01-04T22:36:22.412Z,82.79
2023-01-04T22:38:55.623Z,82.93
2023-01-04T22:41:26.519Z,82.83
2023-01-04T22:43:58.973Z,83.13
2023-01-04T22:46:27.566Z,83.03
2023-01-04T22:48:54.945Z,83.26
2023-01-04T22:51:24.771Z,83.28
2023-01-04T22:53:56.947Z,83.34
2023-01-04T22:56:24.731Z,83.36
2023-01-04T22:58:55.035Z,83.73
2023-01-04T23:01:27.985Z,83.88
2023-01-04T23:03:56.226Z,84.03
2023-01-04T23:06:26.020Z,84.07
2023-01-04T23:09:05.126Z,84.37
2023-01-04T23:11:34.124Z,84.51
2023-01-04T23:14:06.103Z,84.59
2023-01-04T23:16:35.020Z,84.58
2023-01-04T23:19:03.368Z,84.75
2023-01-04T23:21:31.030Z,84.76
2023-01-04T23:23:59.124Z,84.71
2023-01-04T23:26:28.242Z,84.57
2023-01-04T23:28:55.856Z,84.39
2023-01-04T23:31:25.208Z,84.40
2023-01-04T23:33:54.603Z,84.47
2023-01-04T23:36:24.859Z,84.27
2023-01-04T23:38:54.776Z,84.14
2023-01-04T23:41:42.333Z,84.22
2023-01-04T23:44:12.420Z,84.49
2023-01-04T23:46:39.859Z,84.22
2023-01-04T23:49:07.016Z,84.50
2023-01-04T23:51:33.998Z,84.61
2023-01-04T23:54:01.088Z,84.82
2023-01-04T23:56:28.257Z,85.01
2023-01-04T23:58:55.380Z,84.81
